Wednesday, December 19, 2018, 3:46 PM GMT
Back to Local

CWDQ, La Tuque

Location: , , Canada Lat: 47.417
Local Time: 3:46 PM GMT (15:46 GMT) Lon: -72.8
Time Zone: GMT Elev: 554 ft

Show me the last for .
Show Decoded

2018-12-19 15:00 METAR CWDQ 191500Z AUTO 19004KT M11/M14 RMK AO1 SOG 30 1002 SLP172 T11111137 =
2018-12-19 14:00 METAR CWDQ 191400Z AUTO 11002KT M13/M14 RMK AO1 SOG 30 6002 SLP173 T11321135 =
2018-12-19 13:00 METAR CWDQ 191300Z AUTO 10002KT M15/M16 RMK AO1 SOG 30 5001 SLP175 T11491161 =
2018-12-19 12:00 METAR CWDQ 191200Z AUTO 10001KT M17/M18 RMK AO1 SOG 30 8006 SLP172 T11681180 =
2018-12-19 11:00 METAR CWDQ 191100Z AUTO 12001KT M17/M18 RMK AO1 SOG 30 0000 SLP176 T11721175 =
2018-12-19 10:00 METAR CWDQ 191000Z AUTO 19001KT M16/M17 RMK AO1 SOG 30 0001 SLP176 T11591169 =
2018-12-19 09:00 METAR CWDQ 190900Z AUTO 11001KT M16/M17 RMK AO1 SOG 30 2004 SLP177 T11561167 =
2018-12-19 08:00 METAR CWDQ 190800Z AUTO 14001KT M12/M14 RMK AO1 SOG 30 1005 SLP174 T11241141 =
2018-12-19 07:00 METAR CWDQ 190700Z AUTO 29001KT M11/M14 RMK AO1 SOG 30 5005 SLP174 T11081137 =
2018-12-19 06:00 METAR CWDQ 190600Z AUTO 26002KT M10/M13 RMK AO1 SOG 30 5005 SLP171 T10951134 =
2018-12-19 05:00 METAR CWDQ 190500Z AUTO 32002KT M10/M14 RMK AO1 SOG 30 8012 SLP168 T11011135 =
2018-12-19 04:00 METAR CWDQ 190400Z AUTO 31006KT M10/M13 RMK AO1 SOG 30 5002 SLP179 T10981134 =
2018-12-19 03:00 METAR CWDQ 190300Z AUTO 32006KT M10/M13 RMK AO1 SOG 30 8002 SLP177 T10961133 =
2018-12-19 02:00 METAR CWDQ 190200Z AUTO 33005KT M10/M13 RMK AO1 SOG 30 1008 SLP181 T10961130 =
2018-12-19 01:00 METAR CWDQ 190100Z AUTO 34005KT M10/M13 RMK AO1 SOG 30 2010 SLP181 T10981132 =
2018-12-19 00:00 METAR CWDQ 190000Z AUTO 30004KT M10/M14 RMK AO1 SOG 30 3011 SLP179 T11011137 =
2018-12-18 23:00 METAR CWDQ 182300Z AUTO 32008KT M10/M14 RMK AO1 SOG 30 1011 SLP173 T10971139 =
2018-12-18 22:00 METAR CWDQ 182200Z AUTO 33005KT M09/M13 RMK AO1 SOG 30 1017 SLP171 T10891129 =
2018-12-18 21:00 METAR CWDQ 182100Z AUTO 33009KT M08/M12 RMK AO1 SOG 30 1023 PK WND 30020/2006
                 SLP168 T10771115 =
2018-12-18 20:00 METAR CWDQ 182000Z AUTO 32012G18KT M07/M12 RMK AO1 SOG 30 3022 PK WND 32022/1901
                 SLP161 T10741121 =
2018-12-18 19:00 METAR CWDQ 181900Z AUTO 32012G20KT M07/M12 RMK AO1 SOG 30 3013 PK WND 34020/1803
                 SLP153 T10701116 =
2018-12-18 18:00 METAR CWDQ 181800Z AUTO 32013KT M07/M12 RMK AO1 SOG 30 3001 PK WND 32022/1700
                 SLP144 T10701115 =
2018-12-18 17:00 METAR CWDQ 181700Z AUTO 32012G18KT M07/M11 RMK AO1 SOG 30 8003 PK WND 32022/1618
                 SLP139 T10731114 =
2018-12-18 16:00 METAR CWDQ 181600Z AUTO 33009G15KT M08/M12 RMK AO1 SOG 30 0000 PK WND 33022/1529
                 SLP140 T10761116 =

Support USWX by starting your Amazon purchase here.